createdAt,value
2022-12-04T00:01:28.122Z,1.80
2022-12-04T00:03:58.643Z,1.90
2022-12-04T00:06:26.664Z,1.60
2022-12-04T00:08:55.039Z,1.77
2022-12-04T00:11:26.011Z,2.17
2022-12-04T00:14:14.726Z,2.45
2022-12-04T00:16:45.367Z,1.98
2022-12-04T00:19:18.298Z,2.33
2022-12-04T00:21:46.127Z,2.33
2022-12-04T00:24:13.602Z,3.08
2022-12-04T00:26:41.264Z,2.70
2022-12-04T00:29:08.856Z,2.40
2022-12-04T00:31:36.496Z,3.60
2022-12-04T00:34:07.977Z,1.98
2022-12-04T00:36:35.861Z,1.98
2022-12-04T00:39:04.311Z,1.92
2022-12-04T00:41:33.505Z,2.03
2022-12-04T00:44:02.671Z,2.00
2022-12-04T00:46:30.587Z,1.90
2022-12-04T00:49:01.830Z,2.35
2022-12-04T00:51:29.795Z,1.67
2022-12-04T00:53:57.360Z,1.83
2022-12-04T00:56:27.198Z,2.00
2022-12-04T00:58:57.386Z,2.33
2022-12-04T01:01:43.702Z,2.40
2022-12-04T01:04:11.392Z,2.53
2022-12-04T01:06:39.033Z,2.40
2022-12-04T01:09:06.725Z,2.45
2022-12-04T01:11:34.417Z,3.15
2022-12-04T01:14:02.067Z,3.45
2022-12-04T01:16:33.494Z,3.33
2022-12-04T01:19:01.777Z,3.00
2022-12-04T01:21:29.328Z,2.92
2022-12-04T01:23:58.876Z,2.95
2022-12-04T01:26:27.385Z,3.67
2022-12-04T01:28:54.973Z,3.35
2022-12-04T01:31:23.691Z,4.18
2022-12-04T01:33:51.841Z,4.35
2022-12-04T01:36:23.530Z,3.38
2022-12-04T01:38:51.571Z,2.83
2022-12-04T01:41:23.201Z,3.30
2022-12-04T01:44:14.885Z,3.72
2022-12-04T01:46:45.897Z,4.45
2022-12-04T01:49:19.585Z,5.32
2022-12-04T01:51:51.830Z,3.47
2022-12-04T01:54:28.575Z,5.28
2022-12-04T01:57:08.136Z,4.18
2022-12-04T01:59:42.921Z,5.53
2022-12-04T02:02:13.894Z,5.50
2022-12-04T02:04:43.054Z,5.28
2022-12-04T02:07:11.870Z,4.60
2022-12-04T02:09:41.163Z,4.60
2022-12-04T02:12:17.420Z,3.28
2022-12-04T02:15:03.713Z,3.35
2022-12-04T02:17:44.208Z,4.10
2022-12-04T02:20:27.425Z,3.42
2022-12-04T02:23:24.744Z,2.90
2022-12-04T02:26:27.256Z,3.08
2022-12-04T02:29:33.149Z,2.97
2022-12-04T02:32:11.188Z,3.47
2022-12-04T02:34:45.921Z,3.42
2022-12-04T02:37:19.110Z,3.22
2022-12-04T02:39:55.416Z,3.13
2022-12-04T02:42:45.527Z,3.63
2022-12-04T02:45:17.940Z,4.50
2022-12-04T02:47:46.872Z,4.78
2022-12-04T02:50:19.428Z,4.05
2022-12-04T02:52:54.614Z,5.55
2022-12-04T02:55:29.252Z,4.53
2022-12-04T02:58:05.202Z,5.22
2022-12-04T03:00:35.101Z,3.50
2022-12-04T03:03:18.972Z,3.80
2022-12-04T03:06:05.772Z,3.50
2022-12-04T03:08:42.459Z,4.05
2022-12-04T03:11:10.186Z,3.20
2022-12-04T03:13:53.593Z,3.35
2022-12-04T03:16:24.192Z,4.13
2022-12-04T03:18:59.322Z,4.75
2022-12-04T03:21:32.424Z,3.83
2022-12-04T03:24:10.703Z,3.58
2022-12-04T03:26:52.021Z,3.15
2022-12-04T03:29:44.915Z,3.47
2022-12-04T03:32:16.293Z,3.13
2022-12-04T03:35:02.042Z,3.17
2022-12-04T03:37:45.000Z,4.03
2022-12-04T03:40:34.524Z,2.50
2022-12-04T03:43:39.464Z,2.65
2022-12-04T03:46:06.983Z,3.40
2022-12-04T03:48:56.291Z,2.90
2022-12-04T03:51:35.580Z,3.40
2022-12-04T03:54:10.463Z,3.47
2022-12-04T03:56:45.205Z,2.97
2022-12-04T03:59:20.416Z,2.53
2022-12-04T04:01:51.419Z,3.60
2022-12-04T04:04:24.311Z,4.10
2022-12-04T04:07:00.071Z,3.63
2022-12-04T04:09:31.734Z,2.97
2022-12-04T04:12:10.703Z,4.57
2022-12-04T04:15:14.175Z,3.83
2022-12-04T04:18:03.875Z,3.25
2022-12-04T04:20:58.907Z,2.85
2022-12-04T04:23:49.845Z,3.40
2022-12-04T04:26:18.557Z,4.40
2022-12-04T04:28:46.422Z,3.55
2022-12-04T04:31:32.547Z,2.47
2022-12-04T04:34:11.346Z,3.72
2022-12-04T04:36:41.568Z,2.85
2022-12-04T04:39:33.212Z,4.55
2022-12-04T04:42:06.309Z,3.60
2022-12-04T04:44:51.755Z,3.67
2022-12-04T04:47:28.785Z,3.67
2022-12-04T04:49:58.947Z,4.60
2022-12-04T04:52:26.598Z,3.10
2022-12-04T04:54:55.519Z,3.20
2022-12-04T04:57:31.282Z,3.33
2022-12-04T04:59:58.970Z,3.50
2022-12-04T05:02:27.198Z,3.55
2022-12-04T05:04:55.631Z,4.65
2022-12-04T05:07:23.227Z,3.45
2022-12-04T05:09:50.840Z,3.70
2022-12-04T05:12:18.369Z,4.00
2022-12-04T05:14:48.394Z,3.60
2022-12-04T05:17:16.219Z,5.05
2022-12-04T05:19:59.371Z,3.53
2022-12-04T05:22:31.649Z,4.55
2022-12-04T05:25:00.318Z,3.58
2022-12-04T05:27:30.150Z,4.10
2022-12-04T05:29:58.937Z,3.58
2022-12-04T05:32:28.354Z,3.33
2022-12-04T05:34:56.959Z,3.03
2022-12-04T05:37:25.050Z,2.95
2022-12-04T05:39:52.853Z,2.47
2022-12-04T05:42:20.899Z,2.55
2022-12-04T05:44:50.184Z,3.00
2022-12-04T05:47:17.855Z,3.10
2022-12-04T05:49:45.427Z,3.22
2022-12-04T05:52:14.022Z,3.53
2022-12-04T05:54:41.576Z,3.10
2022-12-04T05:57:09.157Z,4.88
2022-12-04T05:59:36.889Z,3.78
2022-12-04T06:02:04.576Z,2.83
2022-12-04T06:04:32.275Z,4.07
2022-12-04T06:06:59.839Z,3.75
2022-12-04T06:09:27.563Z,3.60
2022-12-04T06:11:57.981Z,3.13
2022-12-04T06:14:26.003Z,3.53
2022-12-04T06:16:53.691Z,2.85
2022-12-04T06:19:22.530Z,3.80
2022-12-04T06:21:52.645Z,2.90
2022-12-04T06:24:24.739Z,2.78
2022-12-04T06:27:26.103Z,2.90
2022-12-04T06:29:45.312Z,3.50
2022-12-04T06:32:16.515Z,2.70
2022-12-04T06:34:53.306Z,2.25
2022-12-04T06:37:23.442Z,2.63
2022-12-04T06:39:51.308Z,2.15
2022-12-04T06:42:18.949Z,2.22
2022-12-04T06:44:46.562Z,1.95
2022-12-04T06:47:14.239Z,2.35
2022-12-04T06:49:42.394Z,1.85
2022-12-04T06:52:09.906Z,2.10
2022-12-04T06:54:37.480Z,2.97
2022-12-04T06:57:05.082Z,1.88
2022-12-04T06:59:33.984Z,1.80
2022-12-04T07:02:01.534Z,1.98
2022-12-04T07:04:29.223Z,2.42
2022-12-04T07:06:56.842Z,2.05
2022-12-04T07:09:24.536Z,3.10
2022-12-04T07:11:53.115Z,2.45
2022-12-04T07:14:20.948Z,2.17
2022-12-04T07:16:48.716Z,1.85
2022-12-04T07:19:16.428Z,2.42
2022-12-04T07:21:44.020Z,3.13
2022-12-04T07:24:17.137Z,4.57
2022-12-04T07:26:44.993Z,2.05
2022-12-04T07:29:12.603Z,1.65
2022-12-04T07:31:40.422Z,1.77
2022-12-04T07:34:08.066Z,1.40
2022-12-04T07:36:35.676Z,1.90
2022-12-04T07:39:03.400Z,1.27
2022-12-04T07:41:30.905Z,2.17
2022-12-04T07:44:00.294Z,1.35
2022-12-04T07:46:29.041Z,2.33
2022-12-04T07:48:58.282Z,2.80
2022-12-04T07:51:28.637Z,2.95
2022-12-04T07:54:02.652Z,2.95
2022-12-04T07:56:32.653Z,3.22
2022-12-04T07:59:00.715Z,3.60
2022-12-04T08:01:28.692Z,3.60
2022-12-04T08:03:58.277Z,3.35
2022-12-04T08:06:27.595Z,4.25
2022-12-04T08:08:55.487Z,4.70
2022-12-04T08:11:25.197Z,4.45
2022-12-04T08:14:09.081Z,5.28
2022-12-04T08:17:13.939Z,5.07
2022-12-04T08:24:07.281Z,5.10
2022-12-04T08:27:50.223Z,4.43
2022-12-04T08:31:06.872Z,4.82
2022-12-04T08:33:37.229Z,4.28
2022-12-04T08:36:10.774Z,4.45
2022-12-04T08:48:04.228Z,4.88
2022-12-04T08:51:15.574Z,4.03
2022-12-04T08:53:46.297Z,3.70
2022-12-04T08:56:14.300Z,4.03
2022-12-04T08:58:41.824Z,3.88
2022-12-04T09:01:12.540Z,3.67
2022-12-04T09:03:40.999Z,3.75
2022-12-04T09:06:10.808Z,4.25
2022-12-04T09:08:38.474Z,3.92
2022-12-04T09:11:10.561Z,3.40
2022-12-04T09:13:39.154Z,3.10
2022-12-04T09:16:09.028Z,3.33
2022-12-04T09:18:38.566Z,3.13
2022-12-04T09:21:09.289Z,3.33
2022-12-04T09:23:38.541Z,3.72
2022-12-04T09:26:16.241Z,3.35
2022-12-04T09:28:43.795Z,3.42
2022-12-04T09:31:11.622Z,3.38
2022-12-04T09:33:39.602Z,4.03
2022-12-04T09:36:07.531Z,3.13
2022-12-04T09:39:17.342Z,3.65
2022-12-04T09:42:43.517Z,3.78
2022-12-04T09:45:56.382Z,3.78
2022-12-04T09:54:42.228Z,3.50
2022-12-04T10:49:20.749Z,4.43
2022-12-04T10:52:51.353Z,3.83
2022-12-04T11:03:27.541Z,3.50
2022-12-04T11:06:08.819Z,3.80
2022-12-04T11:08:44.945Z,4.25
2022-12-04T11:11:15.094Z,5.93
2022-12-04T11:13:42.988Z,7.30
2022-12-04T11:16:34.304Z,7.30
2022-12-04T11:19:01.850Z,6.07
2022-12-04T11:21:32.417Z,5.80
2022-12-04T11:24:00.055Z,5.05
2022-12-04T11:26:37.203Z,5.38
2022-12-04T11:29:06.168Z,5.20
2022-12-04T11:31:34.889Z,4.93
2022-12-04T11:34:06.971Z,5.18
2022-12-04T11:36:42.168Z,5.03
2022-12-04T11:39:34.833Z,4.53
2022-12-04T11:42:17.112Z,4.00
2022-12-04T11:45:21.392Z,3.80
2022-12-04T11:47:59.417Z,4.70
2022-12-04T11:50:39.034Z,3.83
2022-12-04T11:53:29.988Z,3.85
2022-12-04T11:56:18.230Z,3.65
2022-12-04T11:59:08.334Z,3.60
2022-12-04T12:02:21.322Z,3.78
2022-12-04T12:05:15.878Z,3.97
2022-12-04T12:08:03.123Z,3.72
2022-12-04T12:10:49.564Z,3.33
2022-12-04T12:17:15.120Z,3.40
2022-12-04T12:20:06.399Z,4.13
2022-12-04T12:23:07.195Z,3.30
2022-12-04T12:25:54.299Z,3.03
2022-12-04T12:28:50.898Z,3.60
2022-12-04T12:31:36.889Z,3.97
2022-12-04T12:34:12.046Z,3.92
2022-12-04T12:36:45.654Z,3.83
2022-12-04T12:39:19.278Z,2.88
2022-12-04T12:41:55.838Z,3.20
2022-12-04T12:44:43.904Z,3.05
2022-12-04T12:47:19.620Z,3.15
2022-12-04T12:49:58.346Z,3.35
2022-12-04T12:52:34.951Z,3.20
2022-12-04T12:55:15.296Z,3.42
2022-12-04T12:57:47.810Z,3.63
2022-12-04T13:00:18.694Z,3.90
2022-12-04T13:03:19.226Z,3.63
2022-12-04T13:06:19.343Z,4.38
2022-12-04T13:09:25.602Z,4.25
2022-12-04T13:12:06.576Z,4.60
2022-12-04T13:14:34.216Z,4.55
2022-12-04T13:17:22.530Z,4.55
2022-12-04T13:19:56.802Z,7.72
2022-12-04T13:23:12.617Z,4.90
2022-12-04T13:26:14.360Z,4.90
2022-12-04T13:28:58.010Z,5.03
2022-12-04T13:31:49.462Z,4.43
2022-12-04T13:34:56.190Z,4.82
2022-12-04T13:37:47.732Z,4.25
2022-12-04T13:40:27.512Z,4.97
2022-12-04T13:43:18.052Z,9.82
2022-12-04T13:45:47.469Z,6.57
2022-12-04T13:48:33.833Z,5.32
2022-12-04T13:51:23.415Z,5.95
2022-12-04T13:54:13.476Z,5.50
2022-12-04T13:56:44.322Z,5.95
2022-12-04T13:59:31.072Z,5.80
2022-12-04T14:02:07.792Z,5.85
2022-12-04T14:04:46.218Z,6.70
2022-12-04T14:07:26.570Z,6.10
2022-12-04T14:09:57.183Z,6.07
2022-12-04T14:12:38.861Z,7.90
2022-12-04T14:15:28.471Z,6.15
2022-12-04T14:18:02.967Z,6.85
2022-12-04T14:20:34.942Z,6.63
2022-12-04T14:23:10.191Z,6.65
2022-12-04T14:25:40.901Z,6.80
2022-12-04T14:28:38.652Z,6.35
2022-12-04T14:31:33.347Z,6.20
2022-12-04T14:34:27.265Z,6.60
2022-12-04T14:36:57.159Z,6.20
2022-12-04T14:39:41.069Z,6.70
2022-12-04T14:42:37.919Z,6.30
2022-12-04T14:45:20.610Z,6.53
2022-12-04T14:48:14.572Z,7.32
2022-12-04T14:50:50.716Z,6.78
2022-12-04T14:53:46.220Z,6.93
2022-12-04T14:57:06.868Z,7.33
2022-12-04T14:59:44.233Z,7.10
2022-12-04T15:02:20.048Z,6.20
2022-12-04T15:04:50.574Z,6.95
2022-12-04T15:07:25.302Z,8.68
2022-12-04T15:10:17.635Z,8.68
2022-12-04T15:13:00.036Z,12.25
2022-12-04T15:15:30.329Z,10.07
2022-12-04T15:18:13.322Z,9.25
2022-12-04T15:20:44.638Z,8.82
2022-12-04T15:23:16.708Z,8.05
2022-12-04T15:25:47.213Z,8.38
2022-12-04T15:28:26.547Z,7.30
2022-12-04T15:30:56.839Z,7.65
2022-12-04T15:33:30.146Z,8.90
2022-12-04T15:36:05.930Z,8.20
2022-12-04T15:38:34.947Z,9.68
2022-12-04T15:41:27.569Z,9.65
2022-12-04T15:43:55.371Z,9.45
2022-12-04T15:46:36.177Z,9.27
2022-12-04T15:49:17.163Z,9.95
2022-12-04T15:51:47.587Z,9.35
2022-12-04T15:54:26.291Z,9.70
2022-12-04T15:57:07.496Z,10.18
2022-12-04T15:59:36.873Z,10.80
2022-12-04T16:02:21.809Z,11.35
2022-12-04T16:04:51.742Z,10.15
2022-12-04T16:07:30.211Z,10.23
2022-12-04T16:13:30.324Z,10.63
2022-12-04T16:16:01.132Z,10.00
2022-12-04T16:18:30.017Z,10.38
2022-12-04T16:20:57.811Z,10.13
2022-12-04T16:23:27.241Z,10.60
2022-12-04T16:25:55.007Z,9.63
2022-12-04T16:28:22.595Z,9.65
2022-12-04T16:30:55.286Z,9.63
2022-12-04T16:33:23.099Z,10.02
2022-12-04T16:35:50.736Z,10.23
2022-12-04T16:38:18.319Z,10.57
2022-12-04T16:40:50.831Z,10.20
2022-12-04T16:43:18.499Z,10.45
2022-12-04T16:45:54.436Z,11.15
2022-12-04T16:48:22.038Z,10.82
2022-12-04T16:50:49.765Z,11.10
2022-12-04T16:53:22.220Z,12.20
2022-12-04T16:55:51.103Z,11.60
2022-12-04T16:58:20.229Z,12.02
2022-12-04T17:00:56.335Z,12.27
2022-12-04T17:03:27.423Z,12.25
2022-12-04T17:05:55.927Z,12.98
2022-12-04T17:08:24.356Z,12.27
2022-12-04T17:10:52.778Z,11.77
2022-12-04T17:13:21.522Z,13.05
2022-12-04T17:15:49.324Z,13.88
2022-12-04T17:18:21.254Z,12.63
2022-12-04T17:20:49.542Z,12.63
2022-12-04T17:23:17.332Z,13.10
2022-12-04T17:25:44.994Z,13.88
2022-12-04T17:28:12.958Z,13.45
2022-12-04T17:30:45.224Z,13.95
2022-12-04T17:33:13.159Z,13.95
2022-12-04T17:35:42.818Z,14.82
2022-12-04T17:38:10.816Z,14.15
2022-12-04T17:40:38.355Z,14.32
2022-12-04T17:43:06.046Z,14.68
2022-12-04T17:45:35.663Z,15.15
2022-12-04T17:48:03.410Z,15.27
2022-12-04T17:50:32.031Z,15.30
2022-12-04T17:52:59.579Z,14.15
2022-12-04T17:55:27.277Z,14.45
2022-12-04T17:57:55.164Z,15.18
2022-12-04T18:00:23.759Z,13.68
2022-12-04T18:02:54.744Z,14.73
2022-12-04T18:05:22.735Z,15.75
2022-12-04T18:07:51.462Z,15.57
2022-12-04T18:10:22.780Z,13.88
2022-12-04T18:12:52.245Z,15.15
2022-12-04T18:15:20.078Z,15.43
2022-12-04T18:17:47.880Z,16.02
2022-12-04T18:20:15.500Z,16.45
2022-12-04T18:22:43.373Z,17.52
2022-12-04T18:25:12.050Z,17.85
2022-12-04T18:27:41.987Z,18.25
2022-12-04T18:30:11.007Z,17.70
2022-12-04T18:32:38.778Z,18.25
2022-12-04T18:35:06.672Z,16.88
2022-12-04T18:37:36.110Z,17.42
2022-12-04T18:40:07.294Z,17.25
2022-12-04T18:42:35.196Z,17.10
2022-12-04T18:45:02.762Z,18.25
2022-12-04T18:47:30.913Z,18.67
2022-12-04T18:49:58.954Z,18.30
2022-12-04T18:52:26.613Z,17.35
2022-12-04T18:54:54.143Z,17.17
2022-12-04T18:57:23.925Z,17.40
2022-12-04T18:59:51.542Z,17.60
2022-12-04T19:02:19.204Z,17.08
2022-12-04T19:04:46.847Z,16.60
2022-12-04T19:07:14.456Z,16.55
2022-12-04T19:10:10.068Z,17.33
2022-12-04T19:12:29.709Z,17.35
2022-12-04T19:14:57.299Z,16.70
2022-12-04T19:17:25.026Z,19.35
2022-12-04T19:19:55.269Z,18.17
2022-12-04T19:22:23.140Z,18.35
2022-12-04T19:24:51.723Z,18.80
2022-12-04T19:27:19.467Z,18.27
2022-12-04T19:29:47.900Z,17.98
2022-12-04T19:36:16.851Z,16.42
2022-12-04T19:39:30.162Z,16.60
2022-12-04T19:44:01.014Z,16.55
2022-12-04T19:55:15.608Z,18.92
2022-12-04T20:13:42.300Z,18.40
2022-12-04T20:17:45.380Z,18.77
2022-12-04T20:23:19.702Z,19.70
2022-12-04T20:25:47.736Z,19.77
2022-12-04T20:32:14.115Z,22.52
2022-12-04T20:34:43.902Z,20.75
2022-12-04T20:37:33.365Z,19.85
2022-12-04T20:54:00.147Z,19.45
2022-12-04T21:27:50.817Z,23.10
2022-12-04T21:30:27.693Z,21.77
2022-12-04T21:38:49.645Z,19.17
2022-12-04T21:44:06.963Z,18.48
2022-12-04T21:47:28.688Z,19.08
2022-12-04T21:50:25.442Z,19.25
2022-12-04T21:53:11.099Z,21.05
2022-12-04T21:55:54.605Z,19.25
2022-12-04T22:02:40.398Z,25.55
2022-12-04T22:12:33.303Z,21.65
2022-12-04T22:15:24.227Z,20.60
2022-12-04T22:17:57.247Z,21.10
2022-12-04T22:20:37.917Z,19.38
2022-12-04T22:23:10.266Z,19.17
2022-12-04T22:25:39.472Z,19.75
2022-12-04T22:28:24.718Z,19.27
2022-12-04T22:31:33.744Z,20.08
2022-12-04T22:35:06.611Z,19.17
2022-12-04T22:38:19.135Z,18.65
2022-12-04T22:41:01.730Z,17.45
2022-12-04T22:43:46.158Z,18.48
2022-12-04T22:46:36.790Z,18.45
2022-12-04T22:49:14.776Z,19.15
2022-12-04T22:51:50.817Z,19.40
2022-12-04T22:54:36.191Z,19.35
2022-12-04T22:57:14.146Z,20.17
2022-12-04T22:59:42.843Z,20.45
2022-12-04T23:02:10.531Z,20.27
2022-12-04T23:04:38.567Z,21.02
2022-12-04T23:07:06.250Z,21.23
2022-12-04T23:09:34.341Z,19.73
2022-12-04T23:12:02.032Z,21.15
2022-12-04T23:14:29.623Z,21.17
2022-12-04T23:16:57.191Z,20.52
2022-12-04T23:19:24.691Z,22.70
2022-12-04T23:21:56.829Z,26.60
2022-12-04T23:24:26.227Z,33.35
2022-12-04T23:26:53.832Z,28.90
2022-12-04T23:29:52.109Z,23.40
2022-12-04T23:32:08.901Z,21.60
2022-12-04T23:34:36.439Z,28.58
2022-12-04T23:37:04.002Z,23.30
2022-12-04T23:39:31.517Z,21.27
2022-12-04T23:41:59.007Z,21.40
2022-12-04T23:44:26.453Z,20.42
2022-12-04T23:46:53.962Z,22.10
2022-12-04T23:49:21.546Z,22.40
2022-12-04T23:51:49.052Z,24.08
2022-12-04T23:54:16.610Z,24.40
2022-12-04T23:56:44.174Z,23.65
2022-12-04T23:59:11.479Z,28.75
